Time;durP1;ratioP1;P1;durP2;ratioP2;P2;SDS_P1;SDS_P2;PMS_P1;PMS_P2;Temp;Humidity;BMP_temperature;BMP_pressure;BME280_temperature;BME280_humidity;BME280_pressure;Samples;Min_cycle;Max_cycle;Signal;HPM_P1;HPM_P2
2023/07/21 19:29:11;;;;;;;;;;;;;;;;;;;;;
2023/07/21 19:32:13;;;;;;;;;15.00;14.00;;;;;29.92;54.56;100610.03;146618;694;46016;-71
2023/07/21 19:35:18;;;;;;;;;19.50;16.50;;;;;30.02;54.59;100611.50;146617;577;47010;-71
2023/07/21 19:38:13;;;;;;;;;14.00;13.50;;;;;30.08;54.32;100616.66;146616;696;46012;-71
2023/07/21 19:41:28;;;;;;;;;16.75;14.50;;;;;29.41;52.43;100495.78;146618;566;46020;-71
2023/07/21 19:44:29;;;;;;;;;14.50;14.50;;;;;30.25;51.99;100626.87;146615;578;46915;-70
2023/07/21 19:47:31;;;;;;;;;13.50;13.50;;;;;30.36;51.98;100626.53;146617;681;46020;-70
2023/07/21 19:50:49;;;;;;;;;16.25;14.50;;;;;30.41;50.51;100632.63;146615;621;46016;-71
2023/07/21 19:53:51;;;;;;;;;12.75;12.50;;;;;30.45;51.25;100634.25;146617;581;47010;-70
2023/07/21 19:56:45;;;;;;;;;12.00;10.75;;;;;30.49;50.14;100629.69;146614;586;46017;-71
2023/07/21 19:59:53;;;;;;;;;13.25;11.75;;;;;30.52;48.76;100626.91;146618;565;47014;-71
2023/07/21 20:03:02;;;;;;;;;;;;;;;;;;;;;
2023/07/21 20:06:05;;;;;;;;;17.00;12.75;;;;;30.54;47.77;100643.78;146615;609;47021;-70
2023/07/21 20:09:00;;;;;;;;;12.25;12.00;;;;;30.52;47.61;100640.28;146613;565;47016;-70
2023/07/21 20:12:04;;;;;;;;;12.75;12.75;;;;;30.45;47.16;100641.41;146618;707;46021;-71
2023/07/21 20:15:05;;;;;;;;;11.75;11.25;;;;;30.38;47.40;100644.28;146613;720;46016;-71
2023/07/21 20:18:09;;;;;;;;;11.25;10.00;;;;;30.33;47.40;100642.66;146620;670;46010;-71
2023/07/21 20:21:14;;;;;;;;;16.00;11.67;;;;;30.30;47.23;100654.34;146614;689;46579;-70
2023/07/21 20:24:21;;;;;;;;;13.50;13.50;;;;;30.22;46.79;100655.50;146617;686;46020;-70
2023/07/21 20:27:19;;;;;;;;;13.25;12.00;;;;;30.14;47.76;100653.03;146615;617;46017;-71
2023/07/21 20:30:22;;;;;;;;;13.75;12.50;;;;;30.07;47.77;100659.50;146619;645;46020;-70
2023/07/21 20:33:19;;;;;;;;;13.00;12.50;;;;;30.01;47.27;100659.69;146614;564;46017;-71
2023/07/21 20:36:30;;;;;;;;;15.25;13.75;;;;;29.01;48.54;100502.28;146622;725;46010;-71
2023/07/21 20:39:41;;;;;;;;;11.75;11.00;;;;;29.94;46.92;100664.34;146609;638;47026;-71
2023/07/21 20:42:43;;;;;;;;;13.25;12.75;;;;;29.91;45.93;100669.78;146616;696;47014;-71
2023/07/21 20:45:51;;;;;;;;;14.00;13.00;;;;;29.82;47.37;100657.56;146613;621;46016;-71
2023/07/21 20:48:49;;;;;;;;;16.25;14.25;;;;;29.79;45.30;100663.00;146621;672;46010;-70
2023/07/21 20:51:45;;;;;;;;;20.50;17.75;;;;;29.78;44.93;100665.69;146614;578;47014;-71
2023/07/21 20:54:47;;;;;;;;;18.50;17.00;;;;;29.74;46.50;100667.59;146620;658;46014;-70
2023/07/21 20:57:46;;;;;;;;;21.00;17.00;;;;;29.72;45.52;100669.44;146614;587;46012;-70
2023/07/21 21:00:54;;;;;;;;;14.75;13.75;;;;;29.67;45.94;100666.91;146620;614;46010;-70
2023/07/21 21:03:49;;;;;;;;;14.75;12.50;;;;;29.66;44.67;100669.62;146613;580;46016;-70
2023/07/21 21:06:45;;;;;;;;;15.50;13.00;;;;;29.65;44.95;100673.19;146617;569;46010;-70
2023/07/21 21:09:38;;;;;;;;;13.00;11.75;;;;;29.66;44.25;100677.66;146609;671;47031;-71
2023/07/21 21:12:52;;;;;;;;;11.50;10.75;;;;;29.67;45.34;100668.69;146618;683;46021;-70
2023/07/21 21:15:53;;;;;;;;;11.00;11.00;;;;;29.70;44.66;100681.97;146613;662;47016;-70
2023/07/21 21:18:52;;;;;;;;;11.00;9.75;;;;;29.74;44.41;100688.97;146616;714;47021;-71
2023/07/21 21:22:00;;;;;;;;;8.33;8.33;;;;;29.80;44.13;100690.59;146614;629;47012;-69
2023/07/21 21:25:05;;;;;;;;;10.00;9.75;;;;;29.84;43.88;100695.78;146621;569;46020;-69
2023/07/21 21:28:00;;;;;;;;;10.00;9.50;;;;;29.86;43.00;100701.97;146616;632;46036;-68
2023/07/21 21:31:25;;;;;;;;;;;;;;;;;;;;;
2023/07/21 21:34:23;;;;;;;;;8.67;8.00;;;;;29.82;44.09;100703.00;146620;585;46034;-68
2023/07/21 21:37:33;;;;;;;;;11.00;9.00;;;;;29.83;44.13;100712.75;146619;573;47010;-68
2023/07/21 21:40:31;;;;;;;;;10.33;8.00;;;;;29.79;43.74;100708.44;146620;597;46016;-67
2023/07/21 21:43:40;;;;;;;;;11.25;10.75;;;;;28.78;44.45;100534.91;146619;618;46010;-67
2023/07/21 21:47:00;;;;;;;;;8.75;8.50;;;;;29.74;44.58;100710.34;146613;691;46017;-66
2023/07/21 21:50:27;;;;;;;;;10.00;8.50;;;;;29.51;45.06;100686.94;146620;678;46020;-65
2023/07/21 21:53:21;;;;;;;;;9.50;9.25;;;;;29.54;44.28;100712.69;146612;577;47015;-64
2023/07/21 21:56:19;;;;;;;;;11.00;10.00;;;;;29.45;44.30;100708.47;146618;673;47020;-65
2023/07/21 21:59:32;;;;;;;;;11.50;9.50;;;;;29.39;45.08;100711.31;146615;673;46914;-64
2023/07/21 22:02:25;;;;;;;;;10.50;9.50;;;;;29.34;44.92;100715.88;146621;566;47010;-64
2023/07/21 22:05:33;;;;;;;;;9.00;9.00;;;;;29.32;45.36;100717.72;146616;648;47014;-65
2023/07/21 22:08:29;;;;;;;;;10.75;9.75;;;;;29.34;45.02;100713.19;146622;625;47011;-64
2023/07/21 22:11:36;;;;;;;;;11.25;10.50;;;;;29.38;45.33;100715.78;146618;600;46914;-64
2023/07/21 22:14:36;;;;;;;;;10.33;9.33;;;;;29.39;45.16;100714.84;146617;572;47010;-63
2023/07/21 22:17:46;;;;;;;;;10.33;9.00;;;;;29.41;44.51;100710.34;146615;653;47918;-64
2023/07/21 22:20:45;;;;;;;;;8.33;8.33;;;;;29.42;45.12;100713.88;146619;640;46020;-65
2023/07/21 22:23:43;;;;;;;;;12.00;11.00;;;;;29.42;44.61;100720.09;146618;635;46016;-65
2023/07/21 22:26:36;;;;;;;;;8.00;8.00;;;;;29.42;44.93;100720.09;146619;618;47010;-68
2023/07/21 22:29:32;;;;;;;;;12.00;9.00;;;;;29.46;44.70;100720.88;146621;577;46012;-66
2023/07/21 22:32:33;;;;;;;;;13.50;10.25;;;;;29.51;44.20;100721.66;146622;701;46021;-66
2023/07/21 22:35:52;;;;;;;;;11.25;10.00;;;;;29.57;45.92;100715.28;146614;625;46016;-66
2023/07/21 22:38:51;;;;;;;;;10.00;8.00;;;;;29.59;44.02;100718.75;146621;589;46010;-66
2023/07/21 22:42:05;;;;;;;;;9.25;9.25;;;;;28.70;45.33;100559.13;146619;564;46012;-65
2023/07/21 22:45:02;;;;;;;;;9.00;8.50;;;;;29.62;45.92;100722.25;146620;574;47028;-65
2023/07/21 22:48:05;;;;;;;;;11.75;9.50;;;;;29.59;46.16;100721.44;146618;674;46016;-65
2023/07/21 22:51:22;;;;;;;;;11.50;10.50;;;;;29.58;46.87;100725.91;146623;569;46038;-66
2023/07/21 22:54:41;;;;;;;;;11.50;8.75;;;;;29.56;47.30;100724.19;146616;573;46016;-65
2023/07/21 22:57:38;;;;;;;;;12.75;12.50;;;;;29.57;47.19;100723.28;146619;629;47020;-67
2023/07/21 23:00:40;;;;;;;;;11.75;11.75;;;;;29.57;47.23;100723.28;146617;566;46016;-67
2023/07/21 23:03:39;;;;;;;;;13.75;13.75;;;;;29.54;47.89;100720.69;146619;586;46020;-67
2023/07/21 23:06:32;;;;;;;;;15.50;13.00;;;;;29.53;48.36;100726.94;146610;571;47913;-67
2023/07/21 23:09:35;;;;;;;;;13.25;10.25;;;;;29.54;48.34;100718.03;146620;569;46021;-66
2023/07/21 23:12:38;;;;;;;;;12.25;11.50;;;;;29.52;48.78;100720.72;146614;626;47012;-68
2023/07/21 23:15:33;;;;;;;;;13.25;11.25;;;;;29.45;48.77;100720.03;146617;719;46021;-66
2023/07/21 23:18:45;;;;;;;;;10.50;10.50;;;;;29.33;49.32;100709.66;146615;581;46913;-66
2023/07/21 23:21:55;;;;;;;;;12.75;11.50;;;;;29.24;49.67;100705.44;146616;581;46020;-67
2023/07/21 23:24:59;;;;;;;;;11.67;10.00;;;;;29.20;50.14;100706.44;146616;583;46017;-66
2023/07/21 23:28:07;;;;;;;;;14.50;11.25;;;;;29.18;49.51;100716.28;146620;668;46010;-64
2023/07/21 23:31:24;;;;;;;;;;;;;;;;;;;;;
2023/07/21 23:34:33;;;;;;;;;13.50;12.00;;;;;29.13;49.13;100703.94;146619;726;47010;-65
2023/07/21 23:37:33;;;;;;;;;12.75;12.50;;;;;29.14;49.71;100709.28;146611;565;46038;-66
2023/07/21 23:40:33;;;;;;;;;12.25;12.00;;;;;29.14;49.61;100701.25;146619;700;46010;-67
2023/07/21 23:43:33;;;;;;;;;12.75;11.25;;;;;29.11;50.14;100706.69;146616;632;46012;-66
2023/07/21 23:46:42;;;;;;;;;16.00;12.00;;;;;29.08;50.73;100704.09;146619;566;46010;-66
2023/07/21 23:49:55;;;;;;;;;13.75;10.25;;;;;29.09;49.65;100710.28;146613;676;46016;-64
2023/07/21 23:52:57;;;;;;;;;13.00;10.67;;;;;29.10;50.04;100714.75;146618;691;47011;-65
2023/07/21 23:56:00;;;;;;;;;;;;;;;;;;;;;
2023/07/21 23:59:04;;;;;;;;;12.75;11.25;;;;;29.08;49.52;100704.09;146616;629;46010;-65
